GLD3894 SBBR-SBCY
Flight info
| Callsign | GLD3894 |
|---|---|
| Flight time | 1h 31m |
| Altitude | 38000 |
| Route | SIREM DCT LODOV DCT MABMA DCT BOKIM |
| Aircraft | A320/M-SDE3FGHIRWY/LB1 |
Departure
| Time | 2026-04-30 18:49 |
|---|---|
| Airport | Presidente Juscelino Kubitschek International Airport (SBBR) |
Arrival
| Time | 2026-04-30 20:20 |
|---|---|
| Airport | Várzea Grande–Marechal Rondon International Airport (SBCY) |
| Time | Latitude | Longitude | Altitude | Speed | Heading |
|---|---|---|---|---|---|
| 2026-04-30 18:29 | -15.87275 | -47.91980 | 3472 ft | 0 kts | 356° |
| 2026-04-30 18:38 | -15.87289 | -47.91979 | 3471 ft | 4 kts | 2° |
| 2026-04-30 18:38 | -15.87315 | -47.91984 | 3471 ft | 4 kts | 26° |
| 2026-04-30 18:38 | -15.87333 | -47.91999 | 3472 ft | 4 kts | 76° |
| 2026-04-30 18:38 | -15.87335 | -47.92010 | 3472 ft | 1 kts | 86° |
| 2026-04-30 18:40 | -15.87335 | -47.92007 | 3472 ft | 2 kts | 86° |
| 2026-04-30 18:40 | -15.87333 | -47.91973 | 3472 ft | 7 kts | 86° |
| 2026-04-30 18:41 | -15.87327 | -47.91901 | 3472 ft | 13 kts | 85° |
| 2026-04-30 18:41 | -15.87321 | -47.91805 | 3472 ft | 13 kts | 87° |
| 2026-04-30 18:41 | -15.87316 | -47.91719 | 3472 ft | 9 kts | 86° |
| 2026-04-30 18:41 | -15.87315 | -47.91693 | 3471 ft | 0 kts | 94° |
| 2026-04-30 18:42 | -15.87321 | -47.91681 | 3471 ft | 4 kts | 121° |
| 2026-04-30 18:42 | -15.87452 | -47.91659 | 3471 ft | 15 kts | 176° |
| 2026-04-30 18:42 | -15.87580 | -47.91650 | 3465 ft | 21 kts | 176° |
| 2026-04-30 18:45 | -15.87809 | -47.92823 | 3481 ft | 20 kts | 266° |
| 2026-04-30 18:45 | -15.87819 | -47.92965 | 3479 ft | 20 kts | 266° |
| 2026-04-30 18:45 | -15.87829 | -47.93111 | 3484 ft | 20 kts | 267° |
| 2026-04-30 18:46 | -15.87837 | -47.93244 | 3501 ft | 17 kts | 266° |
| 2026-04-30 18:46 | -15.87844 | -47.93355 | 3497 ft | 15 kts | 266° |
| 2026-04-30 18:46 | -15.87852 | -47.93478 | 3502 ft | 18 kts | 265° |
| 2026-04-30 18:46 | -15.87860 | -47.93606 | 3502 ft | 18 kts | 266° |
| 2026-04-30 18:47 | -15.87867 | -47.93728 | 3507 ft | 17 kts | 267° |
| 2026-04-30 18:47 | -15.87875 | -47.93847 | 3509 ft | 16 kts | 266° |
| 2026-04-30 18:47 | -15.87892 | -47.93967 | 3515 ft | 17 kts | 239° |
| 2026-04-30 18:47 | -15.88004 | -47.93992 | 3513 ft | 17 kts | 174° |
| 2026-04-30 18:48 | -15.88063 | -47.93939 | 3510 ft | 13 kts | 91° |
| 2026-04-30 18:48 | -15.88060 | -47.93878 | 3508 ft | 9 kts | 86° |
| 2026-04-30 18:48 | -15.88051 | -47.93752 | 3506 ft | 40 kts | 86° |
| 2026-04-30 18:48 | -15.88017 | -47.93219 | 3487 ft | 105 kts | 86° |
| 2026-04-30 18:49 | -15.87956 | -47.92277 | 3478 ft | 153 kts | 86° |
| 2026-04-30 18:49 | -15.87865 | -47.91105 | 3838 ft | 166 kts | 88° |
| 2026-04-30 18:49 | -15.87919 | -47.89915 | 4493 ft | 168 kts | 114° |
| 2026-04-30 18:49 | -15.88802 | -47.89073 | 5034 ft | 189 kts | 151° |
| 2026-04-30 18:50 | -15.90143 | -47.88639 | 5262 ft | 215 kts | 161° |
| 2026-04-30 18:50 | -15.91697 | -47.88293 | 5459 ft | 241 kts | 165° |
| 2026-04-30 18:50 | -15.93424 | -47.87928 | 5801 ft | 265 kts | 164° |
| 2026-04-30 18:50 | -15.95264 | -47.87518 | 6442 ft | 275 kts | 164° |
| 2026-04-30 18:51 | -15.97150 | -47.87068 | 7193 ft | 279 kts | 164° |
| 2026-04-30 18:51 | -15.99017 | -47.86594 | 7983 ft | 281 kts | 163° |
| 2026-04-30 18:51 | -16.00923 | -47.86090 | 8755 ft | 283 kts | 162° |
| 2026-04-30 18:51 | -16.02841 | -47.85575 | 9469 ft | 287 kts | 165° |
| 2026-04-30 18:52 | -16.04849 | -47.85550 | 10118 ft | 297 kts | 193° |
| 2026-04-30 18:52 | -16.06653 | -47.86637 | 10715 ft | 308 kts | 224° |
| 2026-04-30 18:52 | -16.07747 | -47.88578 | 11220 ft | 323 kts | 250° |
| 2026-04-30 18:52 | -16.08184 | -47.90956 | 11348 ft | 346 kts | 265° |
| 2026-04-30 18:53 | -16.08229 | -47.93475 | 11694 ft | 358 kts | 271° |
| 2026-04-30 18:53 | -16.08151 | -47.96080 | 12241 ft | 363 kts | 269° |
| 2026-04-30 18:53 | -16.08382 | -47.98701 | 12842 ft | 364 kts | 256° |
| 2026-04-30 18:53 | -16.09277 | -48.01160 | 13435 ft | 364 kts | 240° |
| 2026-04-30 18:54 | -16.10495 | -48.03488 | 13988 ft | 368 kts | 239° |
| 2026-04-30 18:54 | -16.11759 | -48.05823 | 14471 ft | 372 kts | 239° |
| 2026-04-30 18:54 | -16.13027 | -48.08151 | 14956 ft | 375 kts | 240° |
| 2026-04-30 18:54 | -16.14310 | -48.10527 | 15456 ft | 378 kts | 240° |
| 2026-04-30 18:55 | -16.15592 | -48.12925 | 15958 ft | 381 kts | 240° |
| 2026-04-30 18:55 | -16.17739 | -48.16982 | 16749 ft | 388 kts | 241° |
| 2026-04-30 18:55 | -16.19039 | -48.19454 | 17253 ft | 390 kts | 241° |
| 2026-04-30 18:56 | -16.21659 | -48.24454 | 18276 ft | 396 kts | 242° |
| 2026-04-30 18:56 | -16.22980 | -48.26986 | 18722 ft | 399 kts | 242° |
| 2026-04-30 18:56 | -16.24424 | -48.29463 | 19163 ft | 402 kts | 233° |
| 2026-04-30 18:57 | -16.28146 | -48.33846 | 20071 ft | 407 kts | 227° |
| 2026-04-30 18:57 | -16.30064 | -48.36026 | 20545 ft | 409 kts | 227° |
| 2026-04-30 18:57 | -16.31966 | -48.38191 | 21007 ft | 411 kts | 227° |
| 2026-04-30 18:58 | -16.35855 | -48.42637 | 21901 ft | 418 kts | 228° |
| 2026-04-30 18:58 | -16.37814 | -48.44880 | 22376 ft | 420 kts | 228° |
| 2026-04-30 18:58 | -16.39783 | -48.47138 | 22865 ft | 422 kts | 228° |
| 2026-04-30 18:59 | -16.43755 | -48.51702 | 23740 ft | 427 kts | 229° |
| 2026-04-30 19:00 | -16.49764 | -48.58600 | 24825 ft | 433 kts | 228° |
| 2026-04-30 19:00 | -16.51798 | -48.60936 | 25184 ft | 435 kts | 228° |
| 2026-04-30 19:00 | -16.55593 | -48.65865 | 25892 ft | 438 kts | 240° |
| 2026-04-30 19:01 | -16.58372 | -48.71484 | 26645 ft | 439 kts | 244° |
| 2026-04-30 19:01 | -16.59768 | -48.74336 | 26989 ft | 441 kts | 244° |
| 2026-04-30 19:02 | -16.62573 | -48.80058 | 27675 ft | 444 kts | 243° |
| 2026-04-30 19:02 | -16.65393 | -48.85828 | 28324 ft | 447 kts | 243° |
| 2026-04-30 19:03 | -16.68231 | -48.91640 | 29035 ft | 450 kts | 243° |
| 2026-04-30 19:03 | -16.71069 | -48.97452 | 29715 ft | 454 kts | 243° |
| 2026-04-30 19:04 | -16.73947 | -49.03344 | 30342 ft | 457 kts | 243° |
| 2026-04-30 19:04 | -16.76845 | -49.09282 | 30897 ft | 461 kts | 243° |
| 2026-04-30 19:05 | -16.79754 | -49.15259 | 31549 ft | 461 kts | 243° |
| 2026-04-30 19:05 | -16.82648 | -49.21217 | 32329 ft | 458 kts | 243° |
| 2026-04-30 19:06 | -16.85522 | -49.27140 | 33123 ft | 456 kts | 243° |
| 2026-04-30 19:06 | -16.86932 | -49.30051 | 33524 ft | 454 kts | 243° |
| 2026-04-30 19:06 | -16.89788 | -49.35938 | 34248 ft | 452 kts | 243° |
| 2026-04-30 19:07 | -16.92625 | -49.41784 | 34978 ft | 448 kts | 244° |
| 2026-04-30 19:07 | -16.94033 | -49.44686 | 35337 ft | 446 kts | 243° |
| 2026-04-30 19:08 | -16.96805 | -49.50416 | 36022 ft | 442 kts | 244° |
| 2026-04-30 19:08 | -16.99573 | -49.56140 | 36676 ft | 440 kts | 244° |
| 2026-04-30 19:08 | -17.00953 | -49.58994 | 36972 ft | 439 kts | 244° |
| 2026-04-30 19:09 | -17.03699 | -49.64677 | 37579 ft | 436 kts | 244° |
| 2026-04-30 19:09 | -17.05069 | -49.67510 | 37839 ft | 436 kts | 244° |
| 2026-04-30 19:09 | -17.06438 | -49.70342 | 37924 ft | 436 kts | 244° |
| 2026-04-30 19:10 | -17.11893 | -49.81665 | 37929 ft | 437 kts | 244° |
| 2026-04-30 19:11 | -17.15987 | -49.90178 | 37939 ft | 436 kts | 244° |
| 2026-04-30 19:12 | -17.18717 | -49.95862 | 37944 ft | 437 kts | 246° |
| 2026-04-30 19:12 | -17.20351 | -50.01902 | 37938 ft | 434 kts | 266° |
| 2026-04-30 19:13 | -17.19970 | -50.08171 | 37929 ft | 433 kts | 280° |
| 2026-04-30 19:13 | -17.18985 | -50.14398 | 37939 ft | 434 kts | 279° |
| 2026-04-30 19:14 | -17.18023 | -50.20631 | 37946 ft | 434 kts | 279° |
| 2026-04-30 19:14 | -17.17064 | -50.26880 | 37951 ft | 435 kts | 279° |
| 2026-04-30 19:15 | -17.16099 | -50.33092 | 37961 ft | 435 kts | 279° |
| 2026-04-30 19:15 | -17.14626 | -50.42473 | 37955 ft | 435 kts | 279° |
| 2026-04-30 19:16 | -17.13647 | -50.48730 | 37954 ft | 435 kts | 280° |
| 2026-04-30 19:17 | -17.12182 | -50.58060 | 37962 ft | 435 kts | 280° |
| 2026-04-30 19:17 | -17.10703 | -50.67433 | 37972 ft | 435 kts | 280° |
| 2026-04-30 19:18 | -17.09222 | -50.76823 | 37970 ft | 435 kts | 280° |
| 2026-04-30 19:19 | -17.08230 | -50.83054 | 37969 ft | 435 kts | 280° |
| 2026-04-30 19:19 | -17.06753 | -50.92374 | 37970 ft | 434 kts | 280° |
| 2026-04-30 19:20 | -17.05759 | -50.98615 | 37973 ft | 434 kts | 280° |
| 2026-04-30 19:21 | -17.04274 | -51.07963 | 37967 ft | 434 kts | 280° |
| 2026-04-30 19:22 | -17.02279 | -51.20379 | 37976 ft | 434 kts | 280° |
| 2026-04-30 19:23 | -16.99274 | -51.39042 | 37963 ft | 434 kts | 280° |
| 2026-04-30 19:24 | -16.97760 | -51.48395 | 37966 ft | 434 kts | 280° |
| 2026-04-30 19:25 | -16.95252 | -51.63897 | 37967 ft | 433 kts | 281° |
| 2026-04-30 19:26 | -16.93214 | -51.76319 | 37961 ft | 434 kts | 281° |
| 2026-04-30 19:27 | -16.91704 | -51.85599 | 37966 ft | 433 kts | 281° |
| 2026-04-30 19:28 | -16.90181 | -51.94918 | 37958 ft | 433 kts | 281° |
| 2026-04-30 19:29 | -16.88136 | -52.07332 | 37954 ft | 433 kts | 281° |
| 2026-04-30 19:30 | -16.86085 | -52.19701 | 37941 ft | 433 kts | 281° |
| 2026-04-30 19:31 | -16.84038 | -52.32074 | 37946 ft | 433 kts | 281° |
| 2026-04-30 19:31 | -16.82491 | -52.41387 | 37941 ft | 433 kts | 281° |
| 2026-04-30 19:32 | -16.81456 | -52.47557 | 37945 ft | 433 kts | 281° |
| 2026-04-30 19:32 | -16.80419 | -52.53749 | 37942 ft | 433 kts | 281° |
| 2026-04-30 19:33 | -16.79377 | -52.59943 | 37933 ft | 433 kts | 281° |
| 2026-04-30 19:33 | -16.78344 | -52.66100 | 37926 ft | 432 kts | 281° |
| 2026-04-30 19:34 | -16.77302 | -52.72293 | 37925 ft | 433 kts | 281° |
| 2026-04-30 19:35 | -16.75789 | -52.81593 | 37940 ft | 433 kts | 281° |
| 2026-04-30 19:35 | -16.74816 | -52.87751 | 37936 ft | 432 kts | 281° |
| 2026-04-30 19:36 | -16.73985 | -52.93977 | 37927 ft | 433 kts | 281° |
| 2026-04-30 19:36 | -16.72223 | -53.03200 | 37935 ft | 433 kts | 283° |
| 2026-04-30 19:37 | -16.71015 | -53.09363 | 37940 ft | 434 kts | 282° |
| 2026-04-30 19:37 | -16.69832 | -53.15531 | 37937 ft | 433 kts | 283° |
| 2026-04-30 19:38 | -16.68789 | -53.20652 | 37942 ft | 433 kts | 283° |
| 2026-04-30 19:38 | -16.67507 | -53.26799 | 37945 ft | 433 kts | 284° |
| 2026-04-30 19:39 | -16.66237 | -53.32950 | 37938 ft | 433 kts | 283° |
| 2026-04-30 19:39 | -16.64991 | -53.39074 | 37933 ft | 434 kts | 283° |
| 2026-04-30 19:40 | -16.63735 | -53.45236 | 37926 ft | 434 kts | 283° |
| 2026-04-30 19:40 | -16.62467 | -53.51402 | 37938 ft | 434 kts | 283° |
| 2026-04-30 19:41 | -16.61200 | -53.57571 | 37935 ft | 434 kts | 283° |
| 2026-04-30 19:41 | -16.59932 | -53.63727 | 37925 ft | 434 kts | 283° |
| 2026-04-30 19:42 | -16.58664 | -53.69852 | 37923 ft | 434 kts | 283° |
| 2026-04-30 19:42 | -16.57383 | -53.76019 | 37924 ft | 434 kts | 283° |
| 2026-04-30 19:43 | -16.56107 | -53.82178 | 37922 ft | 434 kts | 283° |
| 2026-04-30 19:44 | -16.54203 | -53.91392 | 37918 ft | 435 kts | 284° |
| 2026-04-30 19:44 | -16.52915 | -53.97552 | 37913 ft | 434 kts | 284° |
| 2026-04-30 19:45 | -16.51631 | -54.03716 | 37911 ft | 435 kts | 284° |
| 2026-04-30 19:45 | -16.50353 | -54.09874 | 37901 ft | 435 kts | 284° |
| 2026-04-30 19:46 | -16.49067 | -54.16043 | 37895 ft | 435 kts | 284° |
| 2026-04-30 19:46 | -16.47785 | -54.22168 | 37895 ft | 435 kts | 284° |
| 2026-04-30 19:47 | -16.46487 | -54.28340 | 37748 ft | 436 kts | 284° |
| 2026-04-30 19:47 | -16.46058 | -54.30378 | 37573 ft | 435 kts | 284° |
| 2026-04-30 19:47 | -16.45193 | -54.34500 | 37227 ft | 435 kts | 284° |
| 2026-04-30 19:47 | -16.44547 | -54.37587 | 36955 ft | 435 kts | 284° |
| 2026-04-30 19:48 | -16.43903 | -54.40668 | 36398 ft | 436 kts | 284° |
| 2026-04-30 19:48 | -16.43254 | -54.43758 | 35890 ft | 434 kts | 284° |
| 2026-04-30 19:48 | -16.42610 | -54.46820 | 35456 ft | 432 kts | 284° |
| 2026-04-30 19:48 | -16.41977 | -54.49830 | 35009 ft | 430 kts | 284° |
| 2026-04-30 19:49 | -16.41338 | -54.52872 | 34553 ft | 428 kts | 284° |
| 2026-04-30 19:49 | -16.40064 | -54.58918 | 33583 ft | 426 kts | 284° |
| 2026-04-30 19:49 | -16.39429 | -54.61918 | 33113 ft | 423 kts | 284° |
| 2026-04-30 19:50 | -16.38796 | -54.64904 | 32648 ft | 420 kts | 284° |
| 2026-04-30 19:50 | -16.38164 | -54.67870 | 32186 ft | 418 kts | 284° |
| 2026-04-30 19:50 | -16.37544 | -54.70787 | 31728 ft | 416 kts | 284° |
| 2026-04-30 19:50 | -16.36922 | -54.73725 | 31279 ft | 414 kts | 284° |
| 2026-04-30 19:51 | -16.36303 | -54.76653 | 30839 ft | 412 kts | 284° |
| 2026-04-30 19:51 | -16.35684 | -54.79566 | 30396 ft | 411 kts | 284° |
| 2026-04-30 19:51 | -16.35063 | -54.82478 | 29967 ft | 410 kts | 284° |
| 2026-04-30 19:51 | -16.34446 | -54.85377 | 29485 ft | 409 kts | 284° |
| 2026-04-30 19:52 | -16.33841 | -54.88226 | 29090 ft | 406 kts | 284° |
| 2026-04-30 19:52 | -16.33236 | -54.91093 | 28678 ft | 403 kts | 284° |
| 2026-04-30 19:52 | -16.32633 | -54.93945 | 28275 ft | 402 kts | 284° |
| 2026-04-30 19:52 | -16.32033 | -54.96777 | 27874 ft | 400 kts | 284° |
| 2026-04-30 19:53 | -16.31430 | -54.99604 | 27474 ft | 399 kts | 284° |
| 2026-04-30 19:53 | -16.30827 | -55.02419 | 27063 ft | 398 kts | 284° |
| 2026-04-30 19:53 | -16.30225 | -55.05234 | 26652 ft | 397 kts | 284° |
| 2026-04-30 19:53 | -16.29625 | -55.08038 | 26231 ft | 396 kts | 284° |
| 2026-04-30 19:54 | -16.29033 | -55.10798 | 25810 ft | 396 kts | 284° |
| 2026-04-30 19:54 | -16.28433 | -55.13600 | 25380 ft | 395 kts | 284° |
| 2026-04-30 19:54 | -16.27836 | -55.16391 | 24937 ft | 395 kts | 284° |
| 2026-04-30 19:54 | -16.27241 | -55.19183 | 24492 ft | 396 kts | 284° |
| 2026-04-30 19:55 | -16.26643 | -55.21987 | 24036 ft | 396 kts | 284° |
| 2026-04-30 19:55 | -16.26042 | -55.24788 | 23574 ft | 397 kts | 284° |
| 2026-04-30 19:55 | -16.25315 | -55.27553 | 23047 ft | 395 kts | 293° |
| 2026-04-30 19:55 | -16.24060 | -55.30075 | 22589 ft | 389 kts | 306° |
| 2026-04-30 19:56 | -16.22436 | -55.32308 | 22197 ft | 384 kts | 310° |
| 2026-04-30 19:56 | -16.20821 | -55.34481 | 21767 ft | 382 kts | 309° |
| 2026-04-30 19:56 | -16.19198 | -55.36672 | 21263 ft | 381 kts | 309° |
| 2026-04-30 19:56 | -16.17592 | -55.38845 | 20791 ft | 379 kts | 309° |
| 2026-04-30 19:57 | -16.15993 | -55.41004 | 20400 ft | 374 kts | 310° |
| 2026-04-30 19:57 | -16.14398 | -55.43156 | 19993 ft | 371 kts | 310° |
| 2026-04-30 19:57 | -16.12842 | -55.45258 | 19506 ft | 370 kts | 310° |
| 2026-04-30 19:57 | -16.11275 | -55.47370 | 19028 ft | 369 kts | 310° |
| 2026-04-30 19:58 | -16.09713 | -55.49473 | 18714 ft | 363 kts | 310° |
| 2026-04-30 19:58 | -16.08169 | -55.51551 | 18292 ft | 361 kts | 310° |
| 2026-04-30 19:58 | -16.06632 | -55.53620 | 17833 ft | 360 kts | 310° |
| 2026-04-30 19:58 | -16.05125 | -55.55648 | 17390 ft | 357 kts | 310° |
| 2026-04-30 19:59 | -16.03629 | -55.57662 | 17249 ft | 346 kts | 310° |
| 2026-04-30 19:59 | -16.02198 | -55.59592 | 17110 ft | 326 kts | 310° |
| 2026-04-30 19:59 | -15.99573 | -55.63125 | 16726 ft | 295 kts | 310° |
| 2026-04-30 20:00 | -15.98323 | -55.64801 | 16255 ft | 290 kts | 310° |
| 2026-04-30 20:00 | -15.97088 | -55.66455 | 15743 ft | 288 kts | 310° |
| 2026-04-30 20:00 | -15.95854 | -55.68109 | 15058 ft | 293 kts | 310° |
| 2026-04-30 20:00 | -15.94595 | -55.69794 | 14430 ft | 296 kts | 309° |
| 2026-04-30 20:01 | -15.92071 | -55.73178 | 13433 ft | 302 kts | 309° |
| 2026-04-30 20:01 | -15.90781 | -55.74909 | 13032 ft | 303 kts | 309° |
| 2026-04-30 20:01 | -15.89501 | -55.76623 | 12771 ft | 299 kts | 309° |
| 2026-04-30 20:02 | -15.86955 | -55.80034 | 12223 ft | 293 kts | 309° |
| 2026-04-30 20:02 | -15.85727 | -55.81682 | 11944 ft | 291 kts | 309° |
| 2026-04-30 20:03 | -15.83248 | -55.85000 | 11376 ft | 289 kts | 309° |
| 2026-04-30 20:03 | -15.82023 | -55.86642 | 11002 ft | 286 kts | 309° |
| 2026-04-30 20:03 | -15.80805 | -55.88271 | 10492 ft | 284 kts | 309° |
| 2026-04-30 20:03 | -15.79595 | -55.89889 | 9990 ft | 283 kts | 309° |
| 2026-04-30 20:04 | -15.78408 | -55.91477 | 9485 ft | 281 kts | 309° |
| 2026-04-30 20:04 | -15.77200 | -55.93057 | 9147 ft | 278 kts | 314° |
| 2026-04-30 20:04 | -15.75754 | -55.94375 | 8837 ft | 275 kts | 329° |
| 2026-04-30 20:05 | -15.72547 | -55.96132 | 8255 ft | 251 kts | 335° |
| 2026-04-30 20:05 | -15.71002 | -55.96958 | 7903 ft | 248 kts | 335° |
| 2026-04-30 20:05 | -15.67949 | -55.98594 | 7280 ft | 246 kts | 335° |
| 2026-04-30 20:06 | -15.66409 | -55.99415 | 7026 ft | 251 kts | 336° |
| 2026-04-30 20:06 | -15.64858 | -56.00240 | 6904 ft | 248 kts | 336° |
| 2026-04-30 20:06 | -15.63337 | -56.01048 | 6740 ft | 243 kts | 336° |
| 2026-04-30 20:06 | -15.61839 | -56.01846 | 6493 ft | 241 kts | 335° |
| 2026-04-30 20:07 | -15.60356 | -56.02638 | 6212 ft | 238 kts | 336° |
| 2026-04-30 20:07 | -15.58881 | -56.03421 | 5800 ft | 238 kts | 335° |
| 2026-04-30 20:07 | -15.55968 | -56.04967 | 4879 ft | 235 kts | 335° |
| 2026-04-30 20:08 | -15.54516 | -56.05740 | 4530 ft | 234 kts | 335° |
| 2026-04-30 20:08 | -15.53059 | -56.06515 | 4200 ft | 235 kts | 335° |
| 2026-04-30 20:08 | -15.51640 | -56.07341 | 3906 ft | 233 kts | 324° |
| 2026-04-30 20:08 | -15.50504 | -56.08548 | 3612 ft | 235 kts | 304° |
| 2026-04-30 20:09 | -15.49810 | -56.10080 | 3313 ft | 235 kts | 284° |
| 2026-04-30 20:09 | -15.49627 | -56.11759 | 3003 ft | 234 kts | 265° |
| 2026-04-30 20:09 | -15.50710 | -56.14723 | 2522 ft | 212 kts | 228° |
| 2026-04-30 20:10 | -15.52785 | -56.16325 | 2438 ft | 162 kts | 200° |
| 2026-04-30 20:10 | -15.53825 | -56.16630 | 2415 ft | 151 kts | 188° |
| 2026-04-30 20:10 | -15.54857 | -56.16696 | 2377 ft | 147 kts | 174° |
| 2026-04-30 20:11 | -15.56796 | -56.16194 | 2302 ft | 144 kts | 152° |
| 2026-04-30 20:11 | -15.57695 | -56.15712 | 2162 ft | 147 kts | 152° |
| 2026-04-30 20:11 | -15.58597 | -56.15234 | 1954 ft | 145 kts | 151° |
| 2026-04-30 20:12 | -15.60372 | -56.14289 | 1562 ft | 144 kts | 152° |
| 2026-04-30 20:12 | -15.61252 | -56.13819 | 1377 ft | 143 kts | 152° |
| 2026-04-30 20:12 | -15.62148 | -56.13341 | 1172 ft | 143 kts | 153° |
| 2026-04-30 20:13 | -15.63032 | -56.12871 | 939 ft | 143 kts | 153° |
| 2026-04-30 20:13 | -15.63903 | -56.12403 | 762 ft | 143 kts | 153° |
| 2026-04-30 20:13 | -15.64789 | -56.11938 | 636 ft | 135 kts | 155° |
| 2026-04-30 20:13 | -15.65672 | -56.11499 | 1031 ft | 157 kts | 154° |
| 2026-04-30 20:14 | -15.66678 | -56.11012 | 1586 ft | 158 kts | 154° |
| 2026-04-30 20:14 | -15.67599 | -56.10347 | 1845 ft | 170 kts | 124° |
| 2026-04-30 20:14 | -15.67902 | -56.09121 | 2048 ft | 190 kts | 83° |
| 2026-04-30 20:14 | -15.67418 | -56.07836 | 2511 ft | 196 kts | 62° |
| 2026-04-30 20:15 | -15.66727 | -56.06620 | 2583 ft | 194 kts | 59° |
| 2026-04-30 20:15 | -15.66030 | -56.05429 | 2606 ft | 194 kts | 59° |
| 2026-04-30 20:15 | -15.65158 | -56.04337 | 2644 ft | 207 kts | 41° |
| 2026-04-30 20:15 | -15.63762 | -56.03772 | 2602 ft | 229 kts | 4° |
| 2026-04-30 20:16 | -15.62181 | -56.04091 | 2603 ft | 240 kts | 336° |
| 2026-04-30 20:16 | -15.60758 | -56.04979 | 2600 ft | 235 kts | 324° |
| 2026-04-30 20:16 | -15.59475 | -56.05965 | 2602 ft | 226 kts | 323° |
| 2026-04-30 20:16 | -15.58239 | -56.06936 | 2557 ft | 216 kts | 323° |
| 2026-04-30 20:17 | -15.57111 | -56.07876 | 2425 ft | 199 kts | 313° |
| 2026-04-30 20:17 | -15.56417 | -56.09032 | 2254 ft | 179 kts | 289° |
| 2026-04-30 20:17 | -15.56185 | -56.10218 | 2218 ft | 158 kts | 271° |
| 2026-04-30 20:17 | -15.56296 | -56.11335 | 2201 ft | 151 kts | 253° |
| 2026-04-30 20:18 | -15.56679 | -56.12312 | 1930 ft | 144 kts | 235° |
| 2026-04-30 20:18 | -15.57302 | -56.13124 | 1567 ft | 144 kts | 220° |
| 2026-04-30 20:18 | -15.58109 | -56.13713 | 1313 ft | 142 kts | 204° |
| 2026-04-30 20:18 | -15.59032 | -56.14009 | 1243 ft | 142 kts | 187° |
| 2026-04-30 20:19 | -15.60015 | -56.14084 | 1164 ft | 139 kts | 178° |
| 2026-04-30 20:19 | -15.60668 | -56.14019 | 1135 ft | 140 kts | 168° |
| 2026-04-30 20:19 | -15.61873 | -56.13531 | 1066 ft | 141 kts | 149° |
| 2026-04-30 20:19 | -15.62736 | -56.13022 | 944 ft | 143 kts | 152° |
| 2026-04-30 20:20 | -15.63619 | -56.12554 | 803 ft | 142 kts | 153° |
| 2026-04-30 20:20 | -15.64499 | -56.12090 | 635 ft | 141 kts | 154° |
| 2026-04-30 20:20 | -15.65240 | -56.11698 | 602 ft | 83 kts | 153° |
| 2026-04-30 20:20 | -15.65514 | -56.11552 | 601 ft | 15 kts | 152° |
| 2026-04-30 20:21 | -15.65578 | -56.11528 | 601 ft | 13 kts | 167° |
| 2026-04-30 20:21 | -15.65618 | -56.11505 | 601 ft | 1 kts | 113° |
| 2026-04-30 20:21 | -15.65611 | -56.11502 | 601 ft | 1 kts | 16° |
| 2026-04-30 20:21 | -15.65584 | -56.11514 | 601 ft | 10 kts | 336° |
| 2026-04-30 20:22 | -15.65507 | -56.11557 | 601 ft | 14 kts | 333° |
| 2026-04-30 20:22 | -15.65418 | -56.11603 | 602 ft | 15 kts | 333° |
| 2026-04-30 20:22 | -15.65320 | -56.11656 | 603 ft | 17 kts | 333° |
| 2026-04-30 20:22 | -15.65205 | -56.11717 | 603 ft | 20 kts | 332° |
| 2026-04-30 20:23 | -15.65091 | -56.11776 | 609 ft | 18 kts | 333° |
| 2026-04-30 20:23 | -15.65070 | -56.11853 | 605 ft | 14 kts | 244° |
| 2026-04-30 20:23 | -15.65093 | -56.11898 | 608 ft | 7 kts | 240° |
| 2026-04-30 20:23 | -15.65112 | -56.11934 | 609 ft | 5 kts | 244° |
| 2026-04-30 20:24 | -15.65119 | -56.11948 | 612 ft | 1 kts | 242° |